Aeroporto :







RITROVATECI SU...

 
LOGIN :

Iscrizione | Disclaimer

   EN    FR    IT 

 









Sommario :    VFR   VFR Marginale   IFR   IFR Intensivo   IFR Molto Intensivo
Visibilità : 
Base nubi : 
>= 8 km
>= 3000ft
5 / 8 km
1000 / 3000 ft
1500m / 5 km
500 / 1000 ft
800 / 1500m
200 / 500 ft
< 800m
< 200 ft
Simboli :   Temporali  Nebbia  Neve Forte  Precipitazioni Forti  Vento > 20 kt






- Altitudine del aeroporto : 461 ft
- Codice IATA : YYT


CYYT - St John's Int

ULTIMO METAR :
  • 141300Z 28015G22KT 15SM BKN030 M01/M07 A3022 RMK SC6 PRESRR SLP240

METARs OBSOLETI :
  • 141200Z 29021G28KT 15SM SCT030 M01/M07 A3014 RMK SC4 SLP216
  • 141100Z 28017G26KT 15SM FEW030 M02/M08 A3010 RMK SC2 PRESRR SLP201

TAF TAF CYYT
Valido dal 14 a 12 ore il 15 a 12 ore UTC


141138Z 1412/1512 28015G25KT P6SM SCT030
BECMG 1413/1415 29010G20KT
FM142000 30008KT P6SM SCT030
BECMG 1422/1424 VRB03KT
FM150500 22006KT P6SM SCT030 BKN120 RMK NXT FCST BY 141800Z



MetMap, La meteo Aeronautica in un colpo d'occhio ! - Copyright ORBIFLY Dicembre 2007 - Disclaimer

ORBIFLY MET'MAP TEAM :

Programmazione e sviluppo : Alexandra Zaïnal
Concezione e sviluppo : Baudouin d'Aumeries
Co-Programmazione e sviluppo : Marc-Olivier Méhu
Supporto tecnico e logistico : Manuel Goepfert
Aiuto per la traduzione : Arnaldo La Scala

Contatto : metmap@orbifly.com




FONTI E CREDITI :

   NOAA